KGYY/GYY METAR and TAF weather

Enter ICAO airport designator
Station Type Date Time Source
KGYY METAR 2019/02/16 07:35 UTC NOAA

KGYY 160735Z AUTO 27006KT 10SM OVC021 M06/M11 A3010 RMK AO2 T10571115


Station Type Date Time Source
KGYY Decoded METAR 2019/02/16 07:35 UTC NOAA

Gary Regional, IN, United States (KGYY) 41-37N 087-25W
Feb 16, 2019 - 02:35 AM EST / 2019.02.16 0735 UTC
Wind: from the W (270 degrees) at 7 MPH (6 KT):0
Visibility: 10 mile(s):0
Sky conditions: overcast
Temperature: 21.7 F (-5.7 C)
Windchill: 12 F (-11 C):1
Dew Point: 11.3 F (-11.5 C)
Relative Humidity: 63%
Pressure (altimeter): 30.1 in. Hg (1019 hPa)
ob: KGYY 160735Z AUTO 27006KT 10SM OVC021 M06/M11 A3010 RMK AO2 T10571115
cycle: 7

Station Type Date Time Source
KGYY TAF 2019/02/16 06:36 UTC NOAA

TAF KGYY 160534Z 1606/1706 34006KT P6SM BKN020
FM161100 02008KT P6SM OVC015 PROB30 1615/1617 5SM -SN
FM161800 05010KT P6SM BKN030
FM170000 08008KT P6SM FEW030 BKN200


Example: see airport list